Flight Track Log - Related Links

Times and Time Zones

All times are in EDT time to prevent confusion due to time zone crossing. See the UAL5900 flight status page for this flight to view local times or setup timezone preferences in your user account.

Time Position Orientation Groundspeed Altitude Reporting Facility
EDT Latitude Longitude Course Direction KTS MPH feet Rate Location/Type
Fri 04:18:24 PM 44.7181 -85.6181 190° South 181 208 2,600  Level Chicago Center
Fri 04:19:31 PM 44.6617 -85.5633 145° Southeast 245 282 5,400 2,558 Climbing Minneapolis Center
Fri 04:20:33 PM 44.5967 -85.5672 182° South 241 277 8,100 2,613 Climbing Minneapolis Center
Fri 04:21:00 PM 44.5107 -85.5788 187° South  Level FlightAware Approximate
Fri 04:21:35 PM 44.5317 -85.5856 191° South 238 274 10,800  Level Minneapolis Center
Fri 04:22:00 PM 44.4548 -85.5863 190° South  Level FlightAware Approximate
Fri 04:22:36 PM 44.4561 -85.6056 191° South 270 311 11,900  Level Minneapolis Center
Fri 04:23:00 PM 44.3994 -85.6002 190° South  Level FlightAware Approximate
Fri 04:23:38 PM 44.3475 -85.6333 190° South 325 374 13,300  Level Minneapolis Center
Fri 04:24:40 PM 44.2497 -85.6589 191° South 347 399 14,400 1,355 Climbing Minneapolis Center
Fri 04:25:42 PM 44.1514 -85.6844 191° South 356 410 16,100 1,415 Climbing Minneapolis Center
Fri 04:26:43 PM 44.0639 -85.7069 190° South 355 409 17,300 1,463 Climbing Minneapolis Center
Fri 04:27:45 PM 43.9433 -85.7378 190° South 364 419 19,100 1,355 Climbing Minneapolis Center
Fri 04:28:47 PM 43.8397 -85.7644 191° South 375 432 20,100 1,016 Climbing Minneapolis Center
Fri 04:29:49 PM 43.7344 -85.7911 190° South 383 441 21,200 1,016 Climbing Minneapolis Center
Fri 04:30:51 PM 43.6278 -85.8175 190° South 387 445 22,200 1,024 Climbing Minneapolis Center
Fri 04:31:52 PM 43.5217 -85.8436 190° South 388 447 23,300 878 Climbing Minneapolis Center
Fri 04:32:54 PM 43.4158 -85.8706 190° South 387 445 24,000 339 Climbing Minneapolis Center
Fri 04:33:56 PM 43.3058 -85.8978 190° South 396 456 24,000  Level Minneapolis Center
Fri 04:34:56 PM 43.1933 -85.9261 190° South 408 470 24,000  Level Chicago Center
Fri 04:35:58 PM 43.0633 -85.9572 190° South 404 465 24,000  Level Chicago Center
Fri 04:37:00 PM 42.9650 -85.9831 191° South 401 461 24,000 -194 Level Chicago Center
Fri 04:38:02 PM 42.8397 -86.0142 190° South 383 441 23,600 -629 Descending Chicago Center
Fri 04:39:04 PM 42.7364 -86.0444 192° South 380 437 22,700 -968 Descending Chicago Center
Fri 04:40:06 PM 42.6700 -86.1433 228° Southwest 362 417 21,600 -1,016 Descending Chicago Center
Fri 04:41:08 PM 42.6450 -86.2728 255° West 354 407 20,600 -960 Descending Chicago Center
Fri 04:42:11 PM 42.6217 -86.3997 256° West 349 402 19,600 -1,008 Descending Chicago Center
Fri 04:43:13 PM 42.5975 -86.5286 256° West 351 404 18,500 -1,210 Descending Chicago Center
Fri 04:44:15 PM 42.5750 -86.6503 256° West 339 390 17,100 -2,323 Descending Chicago Center
Fri 04:45:17 PM 42.5436 -86.7900 253° West 325 374 13,700 -2,903 Descending Chicago Center
Fri 04:46:19 PM 42.5144 -86.8997 250° West 314 361 11,100 -1,742 Descending Chicago Center
Fri 04:47:21 PM 42.4853 -87.0031 249° West 298 343 10,100 -774 Descending Chicago Center
Fri 04:48:23 PM 42.4583 -87.0936 248° West 265 305 9,500 -532 Descending Chicago Center
Fri 04:49:25 PM 42.4333 -87.1750 247° West 241 277 9,000 -242 Descending Chicago Center
Fri 04:50:27 PM 42.3617 -87.2014 195° South 270 311 9,000  Level Chicago Center
Fri 04:51:29 PM 42.2783 -87.1978 178° South 282 325 9,000  Level Chicago Center
Fri 04:52:31 PM 42.1842 -87.1967 179° South 281 323 9,000  Level Chicago Center
Fri 04:53:33 PM 42.1119 -87.1919 177° South 265 305 9,000  Level Chicago Center
Fri 04:54:36 PM 42.0461 -87.1897 179° South 241 277 9,000 -240 Level Chicago Center
Fri 04:55:38 PM 41.9917 -87.2133 198° South 227 261 8,500 -484 Descending Chicago Center
Fri 04:56:40 PM 41.9806 -87.2833 258° West 196 226 8,000 -242 Descending Chicago Center
Fri 04:57:42 PM 41.9811 -87.3494 271° West 149 171 8,000 -435 Level Chicago Center
Fri 04:58:44 PM 41.9828 -87.4031 272° West 145 167 7,100 -667 Descending Chicago Center
Fri 04:59:03 PM 41.9833 -87.4167 273° West 155 178 7,100 -76 Level Chicago TRACON
Fri 05:00:03 PM 41.9833 -87.4833 270° West 160 184 7,000 -450 Descending Chicago TRACON
Fri 05:01:03 PM 41.9833 -87.5333 270° West 151 174 6,200 -850 Descending Chicago TRACON
Fri 05:02:03 PM 41.9833 -87.6000 270° West 151 174 5,300 -893 Descending Chicago TRACON
Fri 05:03:04 PM 41.9833 -87.6500 270° West 143 165 4,400 -843 Descending Chicago TRACON
Fri 05:04:04 PM 41.9833 -87.7000 270° West 137 158 3,600 -800 Descending Chicago TRACON
Fri 05:05:04 PM 41.9833 -87.7500 270° West 136 157 2,800 -750 Descending Chicago TRACON
Fri 05:06:04 PM 41.9833 -87.8000 270° West 119 137 2,100 -700 Descending Chicago TRACON
Fri 05:07:04 PM 41.9833 -87.8500 270° West 115 132 1,400 -700 Descending Chicago TRACON

Login

Don't have an account? Register now (free) for customized features, flight alerts, and more!